createdAt,value
2018-01-20T00:00:41.161Z,14.17
2018-01-20T00:03:08.460Z,17.23
2018-01-20T00:05:41.084Z,14.67
2018-01-20T00:08:10.203Z,16.80
2018-01-20T00:10:42.641Z,15.03
2018-01-20T00:13:10.673Z,15.37
2018-01-20T00:15:37.906Z,18.10
2018-01-20T00:18:09.326Z,16.07
2018-01-20T00:20:37.196Z,14.10
2018-01-20T00:23:06.108Z,13.13
2018-01-20T00:25:33.996Z,12.57
2018-01-20T00:28:04.393Z,13.57
2018-01-20T00:30:32.154Z,13.27
2018-01-20T00:33:02.540Z,14.40
2018-01-20T00:35:31.088Z,10.93
2018-01-20T00:38:01.066Z,8.83
2018-01-20T00:40:29.581Z,8.93
2018-01-20T00:42:58.233Z,14.03
2018-01-20T00:45:26.174Z,8.40
2018-01-20T00:47:55.204Z,8.63
2018-01-20T00:50:25.859Z,10.70
2018-01-20T00:52:52.748Z,12.27
2018-01-20T00:55:22.204Z,10.73
2018-01-20T00:57:52.482Z,10.37
2018-01-20T01:00:23.214Z,8.73
2018-01-20T01:02:53.509Z,10.67
2018-01-20T01:05:22.994Z,10.23
2018-01-20T01:07:51.541Z,13.63
2018-01-20T01:10:23.447Z,11.87
2018-01-20T01:12:53.766Z,13.47
2018-01-20T01:15:21.424Z,11.67
2018-01-20T01:17:48.633Z,8.53
2018-01-20T01:20:16.397Z,6.97
2018-01-20T01:22:43.401Z,6.17
2018-01-20T01:25:12.232Z,7.20
2018-01-20T01:27:41.540Z,6.93
2018-01-20T01:30:10.156Z,10.10
2018-01-20T01:32:37.583Z,8.97
2018-01-20T01:35:06.876Z,10.33
2018-01-20T01:37:36.891Z,18.07
2018-01-20T01:40:04.939Z,15.63
2018-01-20T01:42:32.736Z,15.00
2018-01-20T01:45:05.642Z,12.07
2018-01-20T01:47:32.665Z,13.03
2018-01-20T01:49:59.574Z,9.63
2018-01-20T01:52:28.144Z,10.20
2018-01-20T01:54:56.783Z,7.60
2018-01-20T01:57:23.943Z,10.07
2018-01-20T01:59:51.954Z,8.13
2018-01-20T02:02:21.167Z,8.00
2018-01-20T02:04:48.550Z,8.60
2018-01-20T02:07:15.994Z,9.53
2018-01-20T02:09:44.818Z,7.67
2018-01-20T02:12:15.390Z,10.53
2018-01-20T02:14:42.813Z,8.70
2018-01-20T02:17:12.064Z,9.10
2018-01-20T02:19:45.469Z,8.47
2018-01-20T02:22:18.015Z,7.40
2018-01-20T02:24:45.700Z,7.33
2018-01-20T02:27:15.247Z,10.30
2018-01-20T02:29:44.315Z,8.87
2018-01-20T02:32:12.051Z,10.57
2018-01-20T02:34:41.415Z,10.43
2018-01-20T02:37:09.388Z,12.27
2018-01-20T02:39:39.146Z,12.77
2018-01-20T02:42:06.865Z,6.77
2018-01-20T02:44:35.619Z,10.17
2018-01-20T02:47:04.290Z,9.47
2018-01-20T02:49:31.603Z,9.33
2018-01-20T02:51:58.950Z,7.13
2018-01-20T02:54:26.250Z,15.47
2018-01-20T02:56:56.255Z,14.00
2018-01-20T02:59:23.922Z,7.47
2018-01-20T03:01:51.637Z,12.57
2018-01-20T03:04:20.380Z,9.33
2018-01-20T03:06:48.299Z,8.90
2018-01-20T03:09:16.565Z,11.17
2018-01-20T03:11:44.399Z,10.83
2018-01-20T03:14:11.452Z,7.47
2018-01-20T03:16:39.267Z,6.47
2018-01-20T03:19:08.804Z,5.30
2018-01-20T03:21:37.192Z,7.23
2018-01-20T03:24:04.147Z,9.93
2018-01-20T03:26:32.446Z,5.33
2018-01-20T03:28:59.346Z,7.50
2018-01-20T03:31:26.781Z,6.87
2018-01-20T03:33:54.251Z,5.60
2018-01-20T03:36:21.049Z,8.47
2018-01-20T03:38:48.141Z,17.80
2018-01-20T03:41:15.084Z,10.13
2018-01-20T03:43:42.508Z,8.70
2018-01-20T03:46:12.561Z,9.23
2018-01-20T03:48:40.320Z,7.83
2018-01-20T03:51:07.376Z,6.33
2018-01-20T03:53:35.339Z,9.13
2018-01-20T03:56:03.537Z,6.33
2018-01-20T03:58:30.876Z,6.00
2018-01-20T04:00:58.740Z,6.33
2018-01-20T04:03:25.655Z,8.60
2018-01-20T04:05:53.256Z,7.77
2018-01-20T04:08:21.368Z,5.27
2018-01-20T04:10:49.902Z,8.40
2018-01-20T04:13:18.672Z,14.63
2018-01-20T04:15:46.965Z,11.77
2018-01-20T04:18:14.854Z,14.77
2018-01-20T04:20:43.020Z,7.90
2018-01-20T04:23:12.088Z,10.70
2018-01-20T04:25:39.798Z,10.80
2018-01-20T04:28:09.398Z,22.83
2018-01-20T04:30:39.473Z,15.63
2018-01-20T04:33:06.622Z,16.97
2018-01-20T04:35:33.895Z,8.77
2018-01-20T04:38:02.762Z,10.93
2018-01-20T04:40:30.446Z,11.23
2018-01-20T04:42:58.421Z,10.03
2018-01-20T04:45:26.264Z,12.57
2018-01-20T04:47:53.741Z,13.27
2018-01-20T04:50:23.224Z,7.70
2018-01-20T04:52:50.790Z,16.00
2018-01-20T04:55:17.732Z,12.00
2018-01-20T04:57:47.568Z,14.27
2018-01-20T05:00:14.716Z,12.27
2018-01-20T05:02:41.881Z,10.00
2018-01-20T05:05:09.647Z,11.17
2018-01-20T05:07:37.092Z,9.07
2018-01-20T05:10:04.773Z,14.10
2018-01-20T05:12:32.542Z,8.67
2018-01-20T05:14:59.597Z,9.20
2018-01-20T05:17:30.427Z,10.57
2018-01-20T05:19:57.435Z,12.20
2018-01-20T05:22:26.720Z,12.80
2018-01-20T05:24:54.142Z,13.20
2018-01-20T05:27:22.662Z,11.13
2018-01-20T05:29:50.038Z,18.27
2018-01-20T05:32:16.870Z,18.23
2018-01-20T05:34:46.527Z,18.33
2018-01-20T05:37:14.232Z,15.70
2018-01-20T05:39:41.886Z,20.83
2018-01-20T05:42:08.492Z,48.87
2018-01-20T05:44:37.344Z,17.33
2018-01-20T05:47:05.097Z,24.33
2018-01-20T05:49:33.568Z,43.33
2018-01-20T05:52:00.742Z,31.00
2018-01-20T05:54:28.757Z,19.13
2018-01-20T05:56:56.563Z,10.20
2018-01-20T05:59:23.325Z,12.93
2018-01-20T06:01:50.170Z,23.97
2018-01-20T06:04:18.326Z,10.43
2018-01-20T06:06:46.079Z,15.63
2018-01-20T06:09:13.028Z,10.73
2018-01-20T06:11:40.846Z,47.40
2018-01-20T06:14:07.507Z,48.83
2018-01-20T06:16:36.894Z,47.47
2018-01-20T06:19:06.279Z,42.00
2018-01-20T06:21:33.875Z,45.83
2018-01-20T06:24:01.511Z,28.83
2018-01-20T06:26:28.686Z,29.20
2018-01-20T06:28:55.454Z,41.37
2018-01-20T06:31:23.681Z,35.60
2018-01-20T06:33:50.856Z,42.57
2018-01-20T06:36:19.306Z,68.77
2018-01-20T06:38:45.987Z,58.90
2018-01-20T06:41:12.756Z,48.63
2018-01-20T06:43:41.295Z,18.23
2018-01-20T06:46:08.908Z,14.83
2018-01-20T06:48:36.834Z,14.27
2018-01-20T06:51:05.659Z,17.57
2018-01-20T06:53:32.608Z,22.77
2018-01-20T06:55:59.290Z,39.67
2018-01-20T06:58:28.224Z,34.00
2018-01-20T07:00:55.191Z,32.63
2018-01-20T07:03:23.052Z,39.23
2018-01-20T07:05:50.935Z,35.87
2018-01-20T07:08:17.786Z,32.73
2018-01-20T07:10:46.074Z,45.27
2018-01-20T07:13:16.664Z,45.50
2018-01-20T07:15:45.034Z,48.83
2018-01-20T07:18:12.574Z,61.27
2018-01-20T07:20:39.892Z,80.93
2018-01-20T07:23:07.815Z,109.27
2018-01-20T07:25:34.628Z,132.27
2018-01-20T07:28:01.602Z,117.53
2018-01-20T07:30:28.846Z,112.43
2018-01-20T07:32:56.780Z,106.27
2018-01-20T07:35:24.619Z,96.57
2018-01-20T07:37:53.549Z,88.73
2018-01-20T07:46:08.112Z,57.57
2018-01-20T07:48:37.177Z,64.93
2018-01-20T07:51:03.824Z,71.17
2018-01-20T07:53:31.394Z,112.03
2018-01-20T07:55:59.638Z,93.57
2018-01-20T07:58:26.537Z,98.00
2018-01-20T08:00:53.027Z,103.30
2018-01-20T08:03:20.210Z,89.97
2018-01-20T08:05:47.743Z,125.53
2018-01-20T08:08:15.780Z,141.10
2018-01-20T08:10:42.948Z,137.37
2018-01-20T08:13:10.641Z,191.57
2018-01-20T08:15:38.801Z,224.50
2018-01-20T08:18:05.800Z,185.53
2018-01-20T08:20:32.402Z,156.77
2018-01-20T08:22:58.659Z,136.57
2018-01-20T08:25:30.534Z,75.20
2018-01-20T08:27:56.731Z,57.20
2018-01-20T08:30:22.970Z,25.17
2018-01-20T08:32:49.262Z,28.60
2018-01-20T08:35:15.579Z,30.23
2018-01-20T08:37:42.058Z,33.70
2018-01-20T08:40:08.413Z,54.53
2018-01-20T08:42:34.596Z,40.20
2018-01-20T08:45:00.869Z,20.00
2018-01-20T08:47:27.111Z,19.60
2018-01-20T08:49:53.446Z,14.90
2018-01-20T08:52:19.970Z,19.67
2018-01-20T08:54:50.353Z,13.97
2018-01-20T08:57:20.262Z,11.30
2018-01-20T08:59:47.942Z,8.57
2018-01-20T09:02:16.480Z,21.50
2018-01-20T09:04:49.319Z,7.03
2018-01-20T09:07:22.420Z,13.93
2018-01-20T09:09:51.640Z,11.00
2018-01-20T09:12:22.469Z,58.33
2018-01-20T09:14:53.061Z,33.70
2018-01-20T09:17:21.137Z,94.57
2018-01-20T09:19:51.016Z,131.30
2018-01-20T09:24:53.972Z,25.97
2018-01-20T09:27:22.844Z,28.67
2018-01-20T09:29:50.095Z,10.10
2018-01-20T09:32:18.972Z,14.77
2018-01-20T09:34:47.062Z,19.97
2018-01-20T09:37:14.758Z,13.70
2018-01-20T09:39:42.580Z,13.03
2018-01-20T09:42:12.102Z,20.10
2018-01-20T09:44:42.669Z,14.67
2018-01-20T09:47:11.615Z,21.27
2018-01-20T09:49:40.443Z,19.40
2018-01-20T09:52:08.989Z,25.43
2018-01-20T09:54:37.018Z,33.37
2018-01-20T09:57:06.635Z,71.80
2018-01-20T09:59:34.044Z,97.77
2018-01-20T10:02:00.848Z,36.97
2018-01-20T10:04:28.732Z,29.80
2018-01-20T10:06:56.169Z,31.23
2018-01-20T10:09:23.043Z,31.10
2018-01-20T10:11:52.907Z,31.43
2018-01-20T10:14:21.786Z,46.03
2018-01-20T10:16:52.084Z,47.10
2018-01-20T10:19:21.834Z,52.77
2018-01-20T10:24:24.459Z,34.40
2018-01-20T10:26:52.772Z,28.47
2018-01-20T10:29:19.365Z,23.37
2018-01-20T10:34:19.540Z,51.10
2018-01-20T10:36:47.248Z,63.13
2018-01-20T10:39:17.452Z,51.97
2018-01-20T10:41:45.533Z,56.60
2018-01-20T10:44:12.774Z,38.03
2018-01-20T10:46:41.721Z,29.23
2018-01-20T10:49:08.292Z,37.03
2018-01-20T10:51:34.987Z,44.87
2018-01-20T10:54:02.448Z,42.93
2018-01-20T10:56:31.179Z,27.37
2018-01-20T10:59:00.832Z,27.47
2018-01-20T11:01:30.438Z,31.03
2018-01-20T11:03:58.711Z,26.43
2018-01-20T11:06:26.156Z,41.10
2018-01-20T11:08:54.366Z,50.10
2018-01-20T11:11:22.101Z,39.73
2018-01-20T11:13:50.899Z,34.00
2018-01-20T11:16:20.062Z,29.27
2018-01-20T11:18:48.291Z,39.07
2018-01-20T11:21:16.510Z,37.30
2018-01-20T11:23:43.962Z,50.23
2018-01-20T11:26:10.815Z,65.40
2018-01-20T11:28:37.420Z,45.03
2018-01-20T11:31:12.421Z,53.33
2018-01-20T11:33:48.400Z,46.73
2018-01-20T11:36:20.681Z,46.43
2018-01-20T11:38:52.780Z,46.73
2018-01-20T11:41:22.282Z,57.67
2018-01-20T11:43:52.218Z,51.20
2018-01-20T11:46:20.287Z,41.20
2018-01-20T11:48:51.854Z,47.50
2018-01-20T11:51:19.347Z,52.67
2018-01-20T11:53:48.621Z,55.03
2018-01-20T11:56:16.786Z,63.87
2018-01-20T11:58:52.054Z,69.77
2018-01-20T12:01:20.223Z,57.70
2018-01-20T12:03:50.445Z,46.33
2018-01-20T12:09:01.972Z,36.70
2018-01-20T12:11:29.934Z,66.53
2018-01-20T12:13:59.024Z,49.33
2018-01-20T12:16:26.274Z,66.37
2018-01-20T12:18:57.678Z,55.80
2018-01-20T12:21:27.941Z,65.00
2018-01-20T12:23:56.938Z,61.37
2018-01-20T12:26:32.346Z,10.57
2018-01-20T12:29:00.436Z,4.17
2018-01-20T12:31:27.772Z,4.07
2018-01-20T12:34:10.092Z,6.77
2018-01-20T12:39:28.717Z,6.77
2018-01-20T12:44:37.885Z,8.60
2018-01-20T12:50:09.607Z,6.50
2018-01-20T12:55:33.850Z,8.50
2018-01-20T12:58:01.420Z,7.43
2018-01-20T13:00:29.857Z,6.57
2018-01-20T13:03:03.476Z,6.47
2018-01-20T13:05:32.054Z,5.57
2018-01-20T13:08:02.760Z,7.80
2018-01-20T13:10:29.700Z,8.50
2018-01-20T13:12:56.152Z,10.77
2018-01-20T13:15:23.725Z,6.50
2018-01-20T13:17:50.054Z,6.17
2018-01-20T13:20:16.441Z,6.07
2018-01-20T13:22:42.673Z,9.67
2018-01-20T13:25:09.222Z,11.27
2018-01-20T13:27:36.047Z,6.17
2018-01-20T13:30:03.779Z,9.40
2018-01-20T13:32:32.978Z,9.87
2018-01-20T13:34:59.160Z,12.33
2018-01-20T13:37:26.195Z,7.47
2018-01-20T13:39:52.533Z,9.70
2018-01-20T13:42:18.906Z,6.83
2018-01-20T13:44:49.400Z,7.83
2018-01-20T13:47:16.554Z,11.83
2018-01-20T13:49:43.867Z,14.10
2018-01-20T13:52:10.115Z,18.37
2018-01-20T13:54:37.689Z,19.50
2018-01-20T13:57:04.239Z,11.40
2018-01-20T13:59:30.860Z,8.00
2018-01-20T14:02:04.823Z,19.40
2018-01-20T14:04:38.210Z,19.83
2018-01-20T14:09:44.482Z,21.03
2018-01-20T14:12:12.549Z,21.40
2018-01-20T14:14:40.972Z,22.40
2018-01-20T14:17:08.464Z,23.77
2018-01-20T14:19:37.696Z,31.37
2018-01-20T14:22:05.759Z,32.70
2018-01-20T14:24:33.625Z,28.63
2018-01-20T14:27:01.406Z,29.97
2018-01-20T14:29:30.835Z,24.47
2018-01-20T14:31:58.494Z,26.30
2018-01-20T14:34:27.542Z,53.53
2018-01-20T14:36:54.452Z,49.47
2018-01-20T14:41:58.570Z,28.37
2018-01-20T14:44:30.903Z,29.87
2018-01-20T14:47:00.447Z,25.27
2018-01-20T14:49:28.628Z,27.83
2018-01-20T14:51:59.841Z,19.10
2018-01-20T14:54:29.746Z,28.37
2018-01-20T14:56:58.727Z,32.30
2018-01-20T14:59:27.021Z,20.63
2018-01-20T15:01:56.530Z,19.60
2018-01-20T15:04:25.160Z,23.57
2018-01-20T15:06:53.958Z,36.07
2018-01-20T15:09:30.726Z,27.23
2018-01-20T15:12:00.125Z,23.10
2018-01-20T15:14:31.952Z,29.80
2018-01-20T15:17:09.217Z,57.13
2018-01-20T15:19:38.605Z,40.80
2018-01-20T15:22:07.740Z,37.00
2018-01-20T15:24:46.338Z,38.80
2018-01-20T15:27:23.338Z,38.73
2018-01-20T15:33:03.978Z,64.27
2018-01-20T15:35:35.600Z,26.43
2018-01-20T15:38:06.048Z,64.73
2018-01-20T15:40:43.781Z,49.90
2018-01-20T15:43:15.617Z,64.93
2018-01-20T15:45:51.282Z,45.50
2018-01-20T15:48:30.973Z,36.70
2018-01-20T15:51:00.348Z,38.57
2018-01-20T15:53:31.347Z,19.83
2018-01-20T15:55:59.705Z,37.93
2018-01-20T15:58:35.824Z,24.57
2018-01-20T16:01:18.815Z,16.30
2018-01-20T16:03:51.592Z,25.80
2018-01-20T16:06:27.119Z,24.50
2018-01-20T16:08:54.682Z,15.63
2018-01-20T16:11:32.358Z,20.30
2018-01-20T16:16:44.122Z,32.70
2018-01-20T16:19:19.072Z,17.47
2018-01-20T16:21:56.365Z,16.20
2018-01-20T16:24:26.533Z,14.77
2018-01-20T16:26:53.716Z,13.80
2018-01-20T16:29:23.489Z,15.73
2018-01-20T16:31:58.630Z,13.47
2018-01-20T16:34:29.692Z,11.67
2018-01-20T16:37:05.953Z,16.17
2018-01-20T16:39:34.028Z,17.63
2018-01-20T16:42:03.671Z,29.03
2018-01-20T16:44:32.485Z,25.60
2018-01-20T16:47:01.811Z,19.93
2018-01-20T16:49:32.688Z,46.90
2018-01-20T16:52:02.143Z,29.60
2018-01-20T16:54:32.635Z,19.53
2018-01-20T16:57:00.859Z,28.90
2018-01-20T16:59:34.231Z,38.77
2018-01-20T17:02:03.746Z,53.07
2018-01-20T17:04:38.149Z,30.37
2018-01-20T17:07:08.992Z,41.37
2018-01-20T17:09:43.082Z,34.47
2018-01-20T17:12:15.905Z,26.43
2018-01-20T17:14:52.151Z,28.10
2018-01-20T17:17:22.946Z,36.27
2018-01-20T17:20:02.429Z,25.80
2018-01-20T17:22:35.893Z,25.97
2018-01-20T17:25:08.862Z,21.37
2018-01-20T17:27:37.432Z,22.13
2018-01-20T17:30:10.763Z,37.23
2018-01-20T17:32:39.697Z,36.17
2018-01-20T17:35:11.802Z,37.60
2018-01-20T17:37:44.152Z,40.50
2018-01-20T17:40:13.393Z,31.00
2018-01-20T17:42:41.641Z,30.27
2018-01-20T17:45:12.119Z,29.27
2018-01-20T17:47:41.196Z,36.97
2018-01-20T17:50:09.901Z,29.30
2018-01-20T17:52:40.288Z,31.20
2018-01-20T17:55:11.206Z,35.70
2018-01-20T17:57:42.406Z,33.03
2018-01-20T18:00:14.365Z,31.20
2018-01-20T18:02:45.359Z,34.83
2018-01-20T18:05:16.136Z,29.20
2018-01-20T18:07:47.942Z,29.30
2018-01-20T18:10:20.465Z,27.47
2018-01-20T18:12:50.533Z,26.30
2018-01-20T18:15:20.554Z,28.23
2018-01-20T18:17:46.983Z,28.70
2018-01-20T18:20:16.769Z,26.83
2018-01-20T18:22:44.395Z,26.03
2018-01-20T18:25:11.075Z,29.10
2018-01-20T18:27:37.416Z,31.37
2018-01-20T18:30:05.040Z,33.03
2018-01-20T18:32:31.912Z,41.13
2018-01-20T18:34:59.797Z,31.97
2018-01-20T18:37:27.628Z,33.13
2018-01-20T18:39:55.666Z,32.70
2018-01-20T18:42:24.953Z,37.80
2018-01-20T18:44:55.542Z,36.87
2018-01-20T18:47:23.522Z,36.23
2018-01-20T18:49:53.950Z,37.87
2018-01-20T18:52:20.341Z,37.27
2018-01-20T18:54:46.874Z,37.60
2018-01-20T18:57:13.309Z,43.07
2018-01-20T18:59:39.726Z,56.50
2018-01-20T19:02:06.056Z,49.47
2018-01-20T19:04:32.482Z,55.23
2018-01-20T19:06:58.988Z,67.53
2018-01-20T19:09:26.483Z,42.63
2018-01-20T19:11:52.779Z,34.23
2018-01-20T19:14:20.196Z,35.53
2018-01-20T19:16:46.688Z,34.07
2018-01-20T19:19:13.026Z,35.67
2018-01-20T19:21:40.122Z,36.87
2018-01-20T19:24:06.954Z,29.07
2018-01-20T19:26:35.287Z,29.40
2018-01-20T19:29:01.676Z,32.07
2018-01-20T19:31:28.977Z,30.53
2018-01-20T19:33:56.199Z,24.20
2018-01-20T19:36:23.405Z,27.37
2018-01-20T19:38:49.727Z,29.17
2018-01-20T19:41:16.002Z,26.37
2018-01-20T19:43:42.491Z,24.20
2018-01-20T19:46:08.850Z,23.00
2018-01-20T19:48:36.775Z,19.53
2018-01-20T19:51:04.284Z,16.60
2018-01-20T19:53:30.986Z,19.83
2018-01-20T19:55:58.341Z,23.53
2018-01-20T19:58:25.011Z,22.97
2018-01-20T20:00:51.405Z,23.10
2018-01-20T20:03:17.791Z,29.97
2018-01-20T20:05:44.178Z,26.27
2018-01-20T20:08:10.732Z,18.70
2018-01-20T20:10:37.157Z,19.77
2018-01-20T20:13:03.360Z,16.67
2018-01-20T20:15:30.110Z,17.60
2018-01-20T20:17:57.037Z,22.50
2018-01-20T20:20:23.596Z,20.47
2018-01-20T20:22:50.009Z,18.00
2018-01-20T20:25:16.879Z,27.57
2018-01-20T20:27:43.224Z,27.33
2018-01-20T20:30:09.637Z,20.37
2018-01-20T20:32:36.226Z,20.00
2018-01-20T20:35:03.624Z,18.80
2018-01-20T20:37:30.054Z,19.53
2018-01-20T20:39:56.301Z,17.77
2018-01-20T20:42:22.761Z,20.13
2018-01-20T20:44:51.658Z,23.73
2018-01-20T20:47:18.121Z,14.23
2018-01-20T20:49:45.471Z,17.03
2018-01-20T20:52:11.815Z,16.07
2018-01-20T20:54:38.600Z,17.23
2018-01-20T20:57:04.795Z,20.23
2018-01-20T20:59:31.030Z,25.77
2018-01-20T21:01:57.464Z,14.43
2018-01-20T21:04:24.018Z,10.97
2018-01-20T21:06:50.415Z,12.17
2018-01-20T21:09:17.276Z,16.97
2018-01-20T21:11:43.689Z,19.33
2018-01-20T21:14:13.535Z,17.70
2018-01-20T21:16:40.634Z,13.43
2018-01-20T21:19:06.950Z,19.67
2018-01-20T21:21:33.753Z,13.67
2018-01-20T21:24:00.348Z,12.43
2018-01-20T21:26:26.683Z,16.93
2018-01-20T21:28:53.119Z,10.50
2018-01-20T21:31:19.759Z,9.33
2018-01-20T21:33:46.217Z,8.00
2018-01-20T21:36:12.653Z,8.13
2018-01-20T21:38:39.091Z,8.57
2018-01-20T21:41:05.357Z,8.57
2018-01-20T21:43:31.835Z,7.97
2018-01-20T21:45:58.300Z,7.17
2018-01-20T21:48:24.760Z,10.10
2018-01-20T21:59:42.137Z,7.93
2018-01-20T22:02:09.980Z,7.13
2018-01-20T22:04:40.452Z,6.90
2018-01-20T22:07:07.908Z,7.13
2018-01-20T22:09:35.925Z,9.97
2018-01-20T22:12:04.106Z,8.33
2018-01-20T22:14:32.551Z,12.20
2018-01-20T22:17:00.044Z,9.07
2018-01-20T22:19:27.480Z,11.73
2018-01-20T22:21:56.002Z,17.97
2018-01-20T22:24:26.004Z,9.57
2018-01-20T22:26:53.264Z,13.33
2018-01-20T22:29:20.210Z,12.20
2018-01-20T22:31:49.399Z,20.97
2018-01-20T22:34:20.359Z,43.50
2018-01-20T22:36:49.091Z,47.03
2018-01-20T22:39:16.895Z,306.70
2018-01-20T22:41:44.756Z,58.67
2018-01-20T22:44:13.549Z,30.40
2018-01-20T22:46:44.509Z,7.57
2018-01-20T22:49:11.483Z,7.63
2018-01-20T22:51:41.312Z,7.53
2018-01-20T22:54:13.419Z,6.87
2018-01-20T22:56:43.106Z,6.30
2018-01-20T22:59:11.477Z,6.20
2018-01-20T23:01:41.309Z,6.60
2018-01-20T23:04:17.897Z,6.23
2018-01-20T23:06:49.503Z,5.60
2018-01-20T23:09:20.964Z,6.50
2018-01-20T23:14:36.336Z,6.83
2018-01-20T23:17:03.215Z,8.13
2018-01-20T23:19:31.271Z,6.87
2018-01-20T23:22:00.664Z,6.60
2018-01-20T23:24:28.984Z,6.10
2018-01-20T23:26:59.106Z,5.77
2018-01-20T23:29:27.475Z,5.60
2018-01-20T23:31:55.201Z,5.13
2018-01-20T23:34:24.063Z,5.10
2018-01-20T23:36:51.958Z,5.80
2018-01-20T23:39:20.542Z,5.03
2018-01-20T23:41:48.352Z,5.00
2018-01-20T23:44:23.046Z,6.43
2018-01-20T23:46:52.489Z,5.97
2018-01-20T23:49:20.146Z,6.47
2018-01-20T23:51:48.675Z,6.63
2018-01-20T23:54:19.492Z,5.87
2018-01-20T23:56:46.986Z,6.57
2018-01-20T23:59:15.509Z,6.90
